createdAt,value
2024-03-16T00:00:55.207Z,39.14
2024-03-16T00:01:55.219Z,39.09
2024-03-16T00:02:55.240Z,39.10
2024-03-16T00:03:55.326Z,39.12
2024-03-16T00:04:55.311Z,39.12
2024-03-16T00:05:55.340Z,39.12
2024-03-16T00:06:55.401Z,39.12
2024-03-16T00:07:55.403Z,39.13
2024-03-16T00:08:55.448Z,39.12
2024-03-16T00:09:55.509Z,39.11
2024-03-16T00:10:55.562Z,39.13
2024-03-16T00:11:55.523Z,39.11
2024-03-16T00:12:55.625Z,39.12
2024-03-16T00:13:55.610Z,39.11
2024-03-16T00:14:55.627Z,39.10
2024-03-16T00:15:55.700Z,39.12
2024-03-16T00:16:55.675Z,39.09
2024-03-16T00:17:55.733Z,39.10
2024-03-16T00:18:55.800Z,39.07
2024-03-16T00:19:55.783Z,39.11
2024-03-16T00:20:55.837Z,39.09
2024-03-16T00:21:56.052Z,39.11
2024-03-16T00:22:55.882Z,39.08
2024-03-16T00:23:55.925Z,39.06
2024-03-16T00:24:55.974Z,39.07
2024-03-16T00:25:55.993Z,39.05
2024-03-16T00:26:56.027Z,39.04
2024-03-16T00:27:56.094Z,39.08
2024-03-16T00:28:56.099Z,39.07
2024-03-16T00:29:56.123Z,39.04
2024-03-16T00:30:56.218Z,39.04
2024-03-16T00:31:56.213Z,39.04
2024-03-16T00:32:56.269Z,39.08
2024-03-16T00:33:56.311Z,39.08
2024-03-16T00:34:56.311Z,39.06
2024-03-16T00:35:56.352Z,39.06
2024-03-16T00:36:56.456Z,39.05
2024-03-16T00:37:56.439Z,39.08
2024-03-16T00:38:56.481Z,39.08
2024-03-16T00:39:56.513Z,39.07
2024-03-16T00:40:56.535Z,39.09
2024-03-16T00:41:56.567Z,39.10
2024-03-16T00:42:56.619Z,39.10
2024-03-16T00:43:56.664Z,39.09
2024-03-16T00:44:56.679Z,39.07
2024-03-16T00:45:56.762Z,39.08
2024-03-16T00:46:56.760Z,39.12
2024-03-16T00:47:56.843Z,39.11
2024-03-16T00:48:56.922Z,39.10
2024-03-16T00:49:56.944Z,39.07
2024-03-16T00:50:56.914Z,39.09
2024-03-16T00:51:57.063Z,39.10
2024-03-16T00:52:56.996Z,39.11
2024-03-16T00:53:57.034Z,39.11
2024-03-16T00:54:57.078Z,39.11
2024-03-16T00:55:57.100Z,39.13
2024-03-16T00:56:57.134Z,39.14
2024-03-16T00:57:57.255Z,39.13
2024-03-16T00:58:57.240Z,39.13
2024-03-16T00:59:57.250Z,39.11
2024-03-16T01:00:57.389Z,39.11
2024-03-16T01:01:57.409Z,39.11
2024-03-16T01:02:57.368Z,39.12
2024-03-16T01:03:57.491Z,39.13
2024-03-16T01:04:57.461Z,39.12
2024-03-16T01:05:57.496Z,39.13
2024-03-16T01:06:57.533Z,39.16
2024-03-16T01:07:57.754Z,39.15
2024-03-16T01:08:57.596Z,39.16
2024-03-16T01:09:57.655Z,39.18
2024-03-16T01:10:57.758Z,39.17
2024-03-16T01:11:57.700Z,39.19
2024-03-16T01:12:57.745Z,39.17
2024-03-16T01:13:57.771Z,39.17
2024-03-16T01:14:57.803Z,39.19
2024-03-16T01:15:57.863Z,39.18
2024-03-16T01:16:57.917Z,39.18
2024-03-16T01:17:57.943Z,39.16
2024-03-16T01:18:58.005Z,39.18
2024-03-16T01:19:57.986Z,39.19
2024-03-16T01:20:58.020Z,39.17
2024-03-16T01:21:58.113Z,39.20
2024-03-16T01:22:58.090Z,39.19
2024-03-16T01:23:58.132Z,39.21
2024-03-16T01:24:58.178Z,39.19
2024-03-16T01:25:58.203Z,39.18
2024-03-16T01:26:58.244Z,39.17
2024-03-16T01:27:58.349Z,39.17
2024-03-16T01:28:58.322Z,39.20
2024-03-16T01:29:58.363Z,39.18
2024-03-16T01:30:58.449Z,39.16
2024-03-16T01:31:58.510Z,39.18
2024-03-16T01:32:58.531Z,39.21
2024-03-16T01:33:58.576Z,39.22
2024-03-16T01:34:58.562Z,39.23
2024-03-16T01:35:58.605Z,39.21
2024-03-16T01:36:58.695Z,39.20
2024-03-16T01:37:58.676Z,39.22
2024-03-16T01:38:58.724Z,39.18
2024-03-16T01:39:58.795Z,39.17
2024-03-16T01:40:58.795Z,39.15
2024-03-16T01:41:58.861Z,39.17
2024-03-16T01:42:58.913Z,39.20
2024-03-16T01:43:58.921Z,39.21
2024-03-16T01:44:58.945Z,39.20
2024-03-16T01:45:59.066Z,39.22
2024-03-16T01:46:59.029Z,39.21
2024-03-16T01:47:59.084Z,39.19
2024-03-16T01:48:59.137Z,39.21
2024-03-16T01:49:59.141Z,39.19
2024-03-16T01:50:59.177Z,39.20
2024-03-16T01:51:59.254Z,39.21
2024-03-16T01:52:59.246Z,39.19
2024-03-16T01:53:59.299Z,39.20
2024-03-16T01:54:59.368Z,39.23
2024-03-16T01:55:59.365Z,39.20
2024-03-16T01:56:59.415Z,39.23
2024-03-16T01:57:59.503Z,39.21
2024-03-16T01:58:59.509Z,39.20
2024-03-16T01:59:59.530Z,39.19
2024-03-16T02:00:59.632Z,39.18
2024-03-16T02:01:59.694Z,39.17
2024-03-16T02:02:59.672Z,39.20
2024-03-16T02:03:59.802Z,39.16
2024-03-16T02:04:59.745Z,39.19
2024-03-16T02:05:59.801Z,39.15
2024-03-16T02:06:59.891Z,39.16
2024-03-16T02:07:59.869Z,39.18
2024-03-16T02:08:59.924Z,39.21
2024-03-16T02:09:59.997Z,39.20
2024-03-16T02:11:00.037Z,39.20
2024-03-16T02:12:00.054Z,39.18
2024-03-16T02:13:00.213Z,39.16
2024-03-16T02:14:00.186Z,39.12
2024-03-16T02:15:00.199Z,39.12
2024-03-16T02:16:00.302Z,39.13
2024-03-16T02:17:00.280Z,39.13
2024-03-16T02:18:00.386Z,39.15
2024-03-16T02:19:00.492Z,39.13
2024-03-16T02:20:00.394Z,39.14
2024-03-16T02:21:00.450Z,39.17
2024-03-16T02:22:00.581Z,39.15
2024-03-16T02:23:00.525Z,39.16
2024-03-16T02:24:00.580Z,39.13
2024-03-16T02:25:00.683Z,39.16
2024-03-16T02:26:00.681Z,39.14
2024-03-16T02:27:00.696Z,39.17
2024-03-16T02:28:00.819Z,39.14
2024-03-16T02:29:00.773Z,39.14
2024-03-16T02:30:00.849Z,39.13
2024-03-16T02:31:00.900Z,39.14
2024-03-16T02:32:00.943Z,39.19
2024-03-16T02:33:01.016Z,39.24
2024-03-16T02:34:01.109Z,39.21
2024-03-16T02:35:01.037Z,39.20
2024-03-16T02:36:01.085Z,39.19
2024-03-16T02:37:01.154Z,39.22
2024-03-16T02:38:01.173Z,39.20
2024-03-16T02:39:01.256Z,39.19
2024-03-16T02:40:01.328Z,39.20
2024-03-16T02:41:01.301Z,39.18
2024-03-16T02:42:01.322Z,39.19
2024-03-16T02:43:01.400Z,39.19
2024-03-16T02:44:01.420Z,39.23
2024-03-16T02:45:01.461Z,39.24
2024-03-16T02:46:01.500Z,39.23
2024-03-16T02:47:01.584Z,39.20
2024-03-16T02:48:01.661Z,39.20
2024-03-16T02:49:01.706Z,39.21
2024-03-16T02:50:01.708Z,39.20
2024-03-16T02:51:01.723Z,39.20
2024-03-16T02:52:01.830Z,39.21
2024-03-16T02:53:01.806Z,39.20
2024-03-16T02:54:01.851Z,39.23
2024-03-16T02:55:01.968Z,39.17
2024-03-16T02:56:01.944Z,39.19
2024-03-16T02:57:01.968Z,39.20
2024-03-16T02:58:02.072Z,39.22
2024-03-16T02:59:02.058Z,39.17
2024-03-16T03:00:02.102Z,39.19
2024-03-16T03:01:02.214Z,39.17
2024-03-16T03:02:02.211Z,39.17
2024-03-16T03:03:02.240Z,39.23
2024-03-16T03:04:02.351Z,39.22
2024-03-16T03:05:02.346Z,39.20
2024-03-16T03:06:02.368Z,39.20
2024-03-16T03:07:02.502Z,39.20
2024-03-16T03:08:02.457Z,39.23
2024-03-16T03:09:02.506Z,39.23
2024-03-16T03:10:02.691Z,39.24
2024-03-16T03:11:02.603Z,39.28
2024-03-16T03:12:02.653Z,39.27
2024-03-16T03:13:02.729Z,39.30
2024-03-16T03:14:02.845Z,39.31
2024-03-16T03:15:02.762Z,39.30
2024-03-16T03:16:02.950Z,39.28
2024-03-16T03:17:02.865Z,39.29
2024-03-16T03:18:02.915Z,39.30
2024-03-16T03:19:02.997Z,39.30
2024-03-16T03:20:02.993Z,39.29
2024-03-16T03:21:03.023Z,39.30
2024-03-16T03:22:03.091Z,39.32
2024-03-16T03:23:03.109Z,39.29
2024-03-16T03:24:03.151Z,39.28
2024-03-16T03:25:03.351Z,39.30
2024-03-16T03:26:03.244Z,39.28
2024-03-16T03:27:03.286Z,39.27
2024-03-16T03:28:03.350Z,39.27
2024-03-16T03:29:03.369Z,39.27
2024-03-16T03:30:03.421Z,39.27
2024-03-16T03:31:03.564Z,39.29
2024-03-16T03:32:03.513Z,39.32
2024-03-16T03:33:03.611Z,39.33
2024-03-16T03:34:03.654Z,39.33
2024-03-16T03:35:03.664Z,39.33
2024-03-16T03:36:03.696Z,39.33
2024-03-16T03:37:03.813Z,39.33
2024-03-16T03:38:04.687Z,39.34
2024-03-16T03:39:03.841Z,39.34
2024-03-16T03:40:04.089Z,39.33
2024-03-16T03:41:03.945Z,39.33
2024-03-16T03:42:03.967Z,39.33
2024-03-16T03:43:04.065Z,39.32
2024-03-16T03:44:04.076Z,39.35
2024-03-16T03:45:04.103Z,39.33
2024-03-16T03:46:04.202Z,39.31
2024-03-16T03:47:04.186Z,39.32
2024-03-16T03:48:04.700Z,39.31
2024-03-16T03:49:04.427Z,39.30
2024-03-16T03:50:04.351Z,39.30
2024-03-16T03:51:04.354Z,39.31
2024-03-16T03:52:05.633Z,39.33
2024-03-16T03:53:04.545Z,39.32
2024-03-16T03:54:04.501Z,39.31
2024-03-16T03:55:04.570Z,39.35
2024-03-16T03:56:04.587Z,39.35
2024-03-16T03:57:04.639Z,39.33
2024-03-16T03:58:04.729Z,39.33
2024-03-16T03:59:04.741Z,39.32
2024-03-16T04:00:04.788Z,39.33
2024-03-16T04:01:04.950Z,39.35
2024-03-16T04:02:04.984Z,39.36
2024-03-16T04:03:04.923Z,39.36
2024-03-16T04:04:05.017Z,39.36
2024-03-16T04:05:05.016Z,39.36
2024-03-16T04:06:05.081Z,39.33
2024-03-16T04:07:05.226Z,39.35
2024-03-16T04:08:05.165Z,39.33
2024-03-16T04:09:05.224Z,39.34
2024-03-16T04:10:05.311Z,39.35
2024-03-16T04:11:06.796Z,39.33
2024-03-16T04:12:05.352Z,39.31
2024-03-16T04:13:05.599Z,39.32
2024-03-16T04:14:05.451Z,39.30
2024-03-16T04:15:05.490Z,39.27
2024-03-16T04:16:05.578Z,39.31
2024-03-16T04:17:05.598Z,39.33
2024-03-16T04:18:05.681Z,39.34
2024-03-16T04:19:05.853Z,39.30
2024-03-16T04:20:05.733Z,39.28
2024-03-16T04:21:05.798Z,39.30
2024-03-16T04:22:05.850Z,39.26
2024-03-16T04:23:05.872Z,39.28
2024-03-16T04:24:05.909Z,39.27
2024-03-16T04:25:06.103Z,39.28
2024-03-16T04:26:06.004Z,39.30
2024-03-16T04:27:06.063Z,39.36
2024-03-16T04:28:06.134Z,39.33
2024-03-16T04:29:06.203Z,39.32
2024-03-16T04:30:06.201Z,39.33
2024-03-16T04:31:06.391Z,39.28
2024-03-16T04:32:06.283Z,39.30
2024-03-16T04:33:06.400Z,39.29
2024-03-16T04:34:06.409Z,39.26
2024-03-16T04:35:06.464Z,39.26
2024-03-16T04:36:06.496Z,39.26
2024-03-16T04:37:06.614Z,39.27
2024-03-16T04:38:06.574Z,39.27
2024-03-16T04:39:06.630Z,39.23
2024-03-16T04:40:06.738Z,39.26
2024-03-16T04:41:06.711Z,39.24
2024-03-16T04:42:06.750Z,39.26
2024-03-16T04:43:06.845Z,39.28
2024-03-16T04:44:06.829Z,39.25
2024-03-16T04:45:06.886Z,39.26
2024-03-16T04:46:07.026Z,39.26
2024-03-16T04:47:06.978Z,39.27
2024-03-16T04:48:07.088Z,39.25
2024-03-16T04:49:07.149Z,39.25
2024-03-16T04:50:07.135Z,39.26
2024-03-16T04:51:07.182Z,39.29
2024-03-16T04:52:07.298Z,39.29
2024-03-16T04:53:07.280Z,39.30
2024-03-16T04:54:07.356Z,39.32
2024-03-16T04:55:07.413Z,39.33
2024-03-16T04:56:07.428Z,39.34
2024-03-16T04:57:07.479Z,39.33
2024-03-16T04:58:14.887Z,39.40
2024-03-16T04:59:14.828Z,39.38
2024-03-16T05:00:14.845Z,39.37
2024-03-16T05:01:14.966Z,39.38
2024-03-16T05:02:14.879Z,39.37
2024-03-16T05:03:14.880Z,39.36
2024-03-16T05:04:14.961Z,39.33
2024-03-16T05:05:14.908Z,39.34
2024-03-16T05:06:14.930Z,39.34
2024-03-16T05:07:14.995Z,39.34
2024-03-16T05:08:14.955Z,39.34
2024-03-16T05:09:14.983Z,39.32
2024-03-16T05:10:15.215Z,39.38
2024-03-16T05:11:15.060Z,39.34
2024-03-16T05:12:15.024Z,39.36
2024-03-16T05:13:15.065Z,39.35
2024-03-16T05:14:15.054Z,39.37
2024-03-16T05:15:15.071Z,39.36
2024-03-16T05:16:15.132Z,39.38
2024-03-16T05:17:15.155Z,39.37
2024-03-16T05:18:15.122Z,39.38
2024-03-16T05:19:15.177Z,39.39
2024-03-16T05:20:15.129Z,39.38
2024-03-16T05:21:15.203Z,39.37
2024-03-16T05:22:15.307Z,39.37
2024-03-16T05:23:15.209Z,39.36
2024-03-16T05:24:15.194Z,39.36
2024-03-16T05:25:15.310Z,39.38
2024-03-16T05:26:15.239Z,39.37
2024-03-16T05:27:15.236Z,39.38
2024-03-16T05:28:15.325Z,39.38
2024-03-16T05:29:15.346Z,39.35
2024-03-16T05:30:15.298Z,39.34
2024-03-16T05:31:15.555Z,39.32
2024-03-16T05:32:15.339Z,39.35
2024-03-16T05:33:15.338Z,39.36
2024-03-16T05:34:15.398Z,39.36
2024-03-16T05:35:15.362Z,39.42
2024-03-16T05:36:15.376Z,39.39
2024-03-16T05:37:15.599Z,39.39
2024-03-16T05:38:15.415Z,39.42
2024-03-16T05:39:15.429Z,39.40
2024-03-16T05:40:15.616Z,39.39
2024-03-16T05:41:15.475Z,39.38
2024-03-16T05:42:15.477Z,39.34
2024-03-16T05:43:15.528Z,39.31
2024-03-16T05:44:15.514Z,39.33
2024-03-16T05:45:15.538Z,39.35
2024-03-16T05:46:15.594Z,39.35
2024-03-16T05:47:15.557Z,39.34
2024-03-16T05:48:15.576Z,39.34
2024-03-16T05:49:15.638Z,39.35
2024-03-16T05:50:15.588Z,39.35
2024-03-16T05:51:15.646Z,39.35
2024-03-16T05:52:15.691Z,39.35
2024-03-16T05:53:15.641Z,39.34
2024-03-16T05:54:15.654Z,39.38
2024-03-16T05:55:15.690Z,39.35
2024-03-16T05:56:15.722Z,39.33
2024-03-16T05:57:15.830Z,39.37
2024-03-16T05:58:15.876Z,39.38
2024-03-16T05:59:15.893Z,39.33
2024-03-16T06:00:15.988Z,39.34
2024-03-16T06:01:16.053Z,39.36
2024-03-16T06:02:16.070Z,39.33
2024-03-16T06:03:16.115Z,39.36
2024-03-16T06:04:16.194Z,39.37
2024-03-16T06:05:16.220Z,39.38
2024-03-16T06:06:16.276Z,39.37
2024-03-16T06:07:16.367Z,39.33
2024-03-16T06:08:16.364Z,39.36
2024-03-16T06:09:16.445Z,39.37
2024-03-16T06:10:16.595Z,39.37
2024-03-16T06:11:16.762Z,39.38
2024-03-16T06:12:16.662Z,39.36
2024-03-16T06:13:16.761Z,39.37
2024-03-16T06:14:16.686Z,39.37
2024-03-16T06:15:16.749Z,39.34
2024-03-16T06:16:16.866Z,39.36
2024-03-16T06:17:16.865Z,39.37
2024-03-16T06:18:16.931Z,39.32
2024-03-16T06:19:17.038Z,39.35
2024-03-16T06:20:17.037Z,39.32
2024-03-16T06:21:17.091Z,39.30
2024-03-16T06:22:17.163Z,39.32
2024-03-16T06:23:17.202Z,39.31
2024-03-16T06:24:17.272Z,39.30
2024-03-16T06:25:17.343Z,39.26
2024-03-16T06:26:17.381Z,39.29
2024-03-16T06:27:17.425Z,39.30
2024-03-16T06:28:17.505Z,39.32
2024-03-16T06:29:17.537Z,39.33
2024-03-16T06:30:17.598Z,39.28
2024-03-16T06:31:17.709Z,39.35
2024-03-16T06:32:17.718Z,39.32
2024-03-16T06:33:17.765Z,39.29
2024-03-16T06:34:17.866Z,39.30
2024-03-16T06:35:17.876Z,39.30
2024-03-16T06:36:17.936Z,39.31
2024-03-16T06:37:18.139Z,39.33
2024-03-16T06:38:18.038Z,39.34
2024-03-16T06:39:18.080Z,39.33
2024-03-16T06:40:18.167Z,39.34
2024-03-16T06:41:18.940Z,39.34
2024-03-16T06:42:18.239Z,39.38
2024-03-16T06:43:18.364Z,39.37
2024-03-16T06:44:18.362Z,39.35
2024-03-16T06:45:18.423Z,39.34
2024-03-16T06:46:18.524Z,39.37
2024-03-16T06:47:18.509Z,39.36
2024-03-16T06:48:18.563Z,39.37
2024-03-16T06:49:18.657Z,39.38
2024-03-16T06:50:18.701Z,39.35
2024-03-16T06:51:18.725Z,39.35
2024-03-16T06:52:18.828Z,39.37
2024-03-16T06:53:18.841Z,39.40
2024-03-16T06:54:18.892Z,39.36
2024-03-16T06:55:19.342Z,39.37
2024-03-16T06:56:18.981Z,39.38
2024-03-16T06:57:19.038Z,39.38
2024-03-16T06:58:19.196Z,39.36
2024-03-16T06:59:19.167Z,39.37
2024-03-16T07:00:19.251Z,39.36
2024-03-16T07:01:19.398Z,39.38
2024-03-16T07:02:19.320Z,39.34
2024-03-16T07:03:19.374Z,39.34
2024-03-16T07:04:19.501Z,39.35
2024-03-16T07:05:19.473Z,39.36
2024-03-16T07:06:19.537Z,39.35
2024-03-16T07:07:19.653Z,39.34
2024-03-16T07:08:19.656Z,39.38
2024-03-16T07:09:19.986Z,39.37
2024-03-16T07:10:19.818Z,39.36
2024-03-16T07:11:19.936Z,39.31
2024-03-16T07:12:19.896Z,39.31
2024-03-16T07:13:20.176Z,39.34
2024-03-16T07:14:20.005Z,39.32
2024-03-16T07:15:20.071Z,39.32
2024-03-16T07:16:20.121Z,39.31
2024-03-16T07:17:20.179Z,39.33
2024-03-16T07:18:20.279Z,39.31
2024-03-16T07:19:20.294Z,39.32
2024-03-16T07:20:20.345Z,39.31
2024-03-16T07:21:20.461Z,39.32
2024-03-16T07:22:20.502Z,39.32
2024-03-16T07:23:20.513Z,39.33
2024-03-16T07:24:20.561Z,39.31
2024-03-16T07:25:20.681Z,39.32
2024-03-16T07:26:20.669Z,39.31
2024-03-16T07:27:20.736Z,39.32
2024-03-16T07:28:20.812Z,39.35
2024-03-16T07:29:20.839Z,39.37
2024-03-16T07:30:20.908Z,39.33
2024-03-16T07:31:20.986Z,39.34
2024-03-16T07:32:21.010Z,39.32
2024-03-16T07:33:21.063Z,39.33
2024-03-16T07:34:21.127Z,39.30
2024-03-16T07:35:21.175Z,39.28
2024-03-16T07:36:21.227Z,39.27
2024-03-16T07:37:21.309Z,39.29
2024-03-16T07:38:21.338Z,39.30
2024-03-16T07:39:21.390Z,39.31
2024-03-16T07:40:21.487Z,39.34
2024-03-16T07:41:21.523Z,39.35
2024-03-16T07:42:21.564Z,39.33
2024-03-16T07:43:21.721Z,39.33
2024-03-16T07:44:21.685Z,39.32
2024-03-16T07:45:21.745Z,39.28
2024-03-16T07:46:21.854Z,39.31
2024-03-16T07:47:21.844Z,39.27
2024-03-16T07:48:21.897Z,39.28
2024-03-16T07:49:22.046Z,39.23
2024-03-16T07:50:22.001Z,39.28
2024-03-16T07:51:22.058Z,39.26
2024-03-16T07:52:22.194Z,39.24
2024-03-16T07:53:22.169Z,39.27
2024-03-16T07:54:22.234Z,39.31
2024-03-16T07:55:22.307Z,39.30
2024-03-16T07:56:22.343Z,39.27
2024-03-16T07:57:22.407Z,39.28
2024-03-16T07:58:22.553Z,39.27
2024-03-16T07:59:22.976Z,39.27
2024-03-16T08:00:22.550Z,39.26
2024-03-16T08:01:23.032Z,39.28
2024-03-16T08:02:22.678Z,39.26
2024-03-16T08:03:22.703Z,39.27
2024-03-16T08:04:22.826Z,39.28
2024-03-16T08:05:22.807Z,39.29
2024-03-16T08:06:22.870Z,39.29
2024-03-16T08:07:23.056Z,39.27
2024-03-16T08:08:22.962Z,39.26
2024-03-16T08:09:23.024Z,39.25
2024-03-16T08:10:23.226Z,39.25
2024-03-16T08:11:23.143Z,39.26
2024-03-16T08:12:24.022Z,39.27
2024-03-16T08:13:23.373Z,39.26
2024-03-16T08:14:23.297Z,39.30
2024-03-16T08:15:23.346Z,39.28
2024-03-16T08:16:23.428Z,39.29
2024-03-16T08:17:23.445Z,39.28
2024-03-16T08:18:23.493Z,39.30
2024-03-16T08:19:23.601Z,39.27
2024-03-16T08:20:23.602Z,39.25
2024-03-16T08:21:23.669Z,39.23
2024-03-16T08:22:23.741Z,39.20
2024-03-16T08:23:23.763Z,39.19
2024-03-16T08:24:23.790Z,39.17
2024-03-16T08:25:23.884Z,39.15
2024-03-16T08:26:23.880Z,39.14
2024-03-16T08:27:26.889Z,39.10
2024-03-16T08:28:25.058Z,39.12
2024-03-16T08:29:23.967Z,39.13
2024-03-16T08:30:23.967Z,39.10
2024-03-16T08:31:24.047Z,39.07
2024-03-16T08:32:24.000Z,39.07
2024-03-16T08:33:24.036Z,39.10
2024-03-16T08:34:24.182Z,39.08
2024-03-16T08:35:24.030Z,39.08
2024-03-16T08:36:24.053Z,39.08
2024-03-16T08:37:24.159Z,39.08
2024-03-16T08:38:24.071Z,39.09
2024-03-16T08:39:24.090Z,39.08
2024-03-16T08:40:24.110Z,39.04
2024-03-16T08:41:24.184Z,39.09
2024-03-16T08:42:24.128Z,39.07
2024-03-16T08:43:24.265Z,39.05
2024-03-16T08:44:24.164Z,39.02
2024-03-16T08:45:24.169Z,39.06
2024-03-16T08:46:27.671Z,39.04
2024-03-16T08:47:24.280Z,39.01
2024-03-16T08:48:24.205Z,39.05
2024-03-16T08:49:24.257Z,39.04
2024-03-16T08:50:24.198Z,39.03
2024-03-16T08:51:24.201Z,39.03
2024-03-16T08:52:24.309Z,39.04
2024-03-16T08:53:24.203Z,39.01
2024-03-16T08:54:24.218Z,39.01
2024-03-16T08:55:24.277Z,39.05
2024-03-16T08:56:24.243Z,39.03
2024-03-16T08:57:24.265Z,39.02
2024-03-16T08:58:24.408Z,39.01
2024-03-16T08:59:24.267Z,39.01
2024-03-16T09:00:24.323Z,39.01
2024-03-16T09:01:24.369Z,39.00
2024-03-16T09:02:24.292Z,39.01
2024-03-16T09:03:24.313Z,38.98
2024-03-16T09:04:24.335Z,38.99
2024-03-16T09:05:24.323Z,38.99
2024-03-16T09:06:24.351Z,39.01
2024-03-16T09:07:24.335Z,39.02
2024-03-16T09:08:24.335Z,39.01
2024-03-16T09:09:24.347Z,38.98
2024-03-16T09:10:24.385Z,39.02
2024-03-16T09:11:27.256Z,39.00
2024-03-16T09:12:24.373Z,39.00
2024-03-16T09:13:24.409Z,38.99
2024-03-16T09:14:24.377Z,39.02
2024-03-16T09:15:24.388Z,39.00
2024-03-16T09:16:24.471Z,39.01
2024-03-16T09:17:24.427Z,39.02
2024-03-16T09:18:24.434Z,39.00
2024-03-16T09:19:24.442Z,38.98
2024-03-16T09:20:24.457Z,39.00
2024-03-16T09:21:24.462Z,39.02
2024-03-16T09:22:24.552Z,38.98
2024-03-16T09:23:24.489Z,38.95
2024-03-16T09:24:24.500Z,38.99
2024-03-16T09:25:25.549Z,39.02
2024-03-16T09:26:24.531Z,39.00
2024-03-16T09:27:24.547Z,38.99
2024-03-16T09:28:24.681Z,39.01
2024-03-16T09:29:24.606Z,39.01
2024-03-16T09:30:24.578Z,39.03
2024-03-16T09:31:24.639Z,39.04
2024-03-16T09:32:24.609Z,38.99
2024-03-16T09:33:24.646Z,38.98
2024-03-16T09:34:24.724Z,38.99
2024-03-16T09:35:24.651Z,39.01
2024-03-16T09:36:24.640Z,39.02
2024-03-16T09:37:24.642Z,39.01
2024-03-16T09:38:24.650Z,39.01
2024-03-16T09:39:24.731Z,39.00
2024-03-16T09:40:24.752Z,39.02
2024-03-16T09:41:24.691Z,39.01
2024-03-16T09:42:24.697Z,39.03
2024-03-16T09:43:24.796Z,39.03
2024-03-16T09:44:24.726Z,39.01
2024-03-16T09:45:24.724Z,39.01
2024-03-16T09:46:24.736Z,39.00
2024-03-16T09:47:24.763Z,38.99
2024-03-16T09:48:27.496Z,38.99
2024-03-16T09:49:24.756Z,39.02
2024-03-16T09:50:24.764Z,38.99
2024-03-16T09:51:24.773Z,38.99
2024-03-16T09:52:24.784Z,38.99
2024-03-16T09:53:24.867Z,38.97
2024-03-16T09:54:24.823Z,39.00
2024-03-16T09:55:24.817Z,38.97
2024-03-16T09:56:24.830Z,38.99
2024-03-16T09:57:24.842Z,38.99
2024-03-16T09:58:24.892Z,39.01
2024-03-16T09:59:30.476Z,39.00
2024-03-16T10:00:25.868Z,39.01
2024-03-16T10:01:24.861Z,39.03
2024-03-16T10:02:24.853Z,39.01
2024-03-16T10:03:24.873Z,39.03
2024-03-16T10:04:24.867Z,39.02
2024-03-16T10:05:24.893Z,39.00
2024-03-16T10:06:24.879Z,38.98
2024-03-16T10:07:24.884Z,38.98
2024-03-16T10:08:24.913Z,38.96
2024-03-16T10:09:24.940Z,38.96
2024-03-16T10:10:24.917Z,38.96
2024-03-16T10:11:25.079Z,38.96
2024-03-16T10:12:24.987Z,38.95
2024-03-16T10:13:25.024Z,38.94
2024-03-16T10:14:25.054Z,38.93
2024-03-16T10:15:25.148Z,38.92
2024-03-16T10:16:25.198Z,38.94
2024-03-16T10:17:25.239Z,38.94
2024-03-16T10:18:25.251Z,38.91
2024-03-16T10:19:25.585Z,38.90
2024-03-16T10:20:25.385Z,38.91
2024-03-16T10:21:25.478Z,38.90
2024-03-16T10:22:25.505Z,38.88
2024-03-16T10:23:25.555Z,38.90
2024-03-16T10:24:25.607Z,38.92
2024-03-16T10:25:25.659Z,38.90
2024-03-16T10:26:25.726Z,38.93
2024-03-16T10:27:25.785Z,38.90
2024-03-16T10:28:25.840Z,38.89
2024-03-16T10:29:25.902Z,38.90
2024-03-16T10:30:25.965Z,38.90
2024-03-16T10:31:25.999Z,38.87
2024-03-16T10:32:26.088Z,38.90
2024-03-16T10:33:26.134Z,38.89
2024-03-16T10:34:26.204Z,38.88
2024-03-16T10:35:26.231Z,38.89
2024-03-16T10:36:26.304Z,38.86
2024-03-16T10:37:26.334Z,38.87
2024-03-16T10:38:26.378Z,38.87
2024-03-16T10:39:26.436Z,38.91
2024-03-16T10:40:26.468Z,38.90
2024-03-16T10:41:26.500Z,38.90
2024-03-16T10:42:26.529Z,38.91
2024-03-16T10:43:26.549Z,38.92
2024-03-16T10:44:26.568Z,38.94
2024-03-16T10:45:26.588Z,38.92
2024-03-16T10:46:26.607Z,38.94
2024-03-16T10:47:26.623Z,38.93
2024-03-16T10:48:26.640Z,38.93
2024-03-16T10:49:26.675Z,38.92
2024-03-16T10:50:26.679Z,38.91
2024-03-16T10:51:26.706Z,38.92
2024-03-16T10:52:26.716Z,38.91
2024-03-16T10:53:26.738Z,38.92
2024-03-16T10:54:26.772Z,38.95
2024-03-16T10:55:26.795Z,38.94
2024-03-16T10:56:26.806Z,38.95
2024-03-16T10:57:26.830Z,38.93
2024-03-16T10:58:26.854Z,38.94
2024-03-16T10:59:26.863Z,38.94
2024-03-16T11:00:26.890Z,38.93
2024-03-16T11:01:26.904Z,38.92
2024-03-16T11:02:26.993Z,38.95
2024-03-16T11:03:26.995Z,38.93
2024-03-16T11:04:27.008Z,38.95
2024-03-16T11:05:26.996Z,38.94
2024-03-16T11:06:27.037Z,38.94
2024-03-16T11:07:27.022Z,38.94
2024-03-16T11:08:27.051Z,38.94
2024-03-16T11:09:27.071Z,38.95
2024-03-16T11:10:27.125Z,38.94
2024-03-16T11:11:27.176Z,38.93
2024-03-16T11:12:27.137Z,38.92
2024-03-16T11:13:27.203Z,38.91
2024-03-16T11:14:27.202Z,38.91
2024-03-16T11:15:27.227Z,38.91
2024-03-16T11:16:27.255Z,38.92
2024-03-16T11:17:27.311Z,38.90
2024-03-16T11:18:27.304Z,38.89
2024-03-16T11:19:27.280Z,38.91
2024-03-16T11:20:27.298Z,38.90
2024-03-16T11:21:27.310Z,38.89
2024-03-16T11:22:27.333Z,38.91
2024-03-16T11:23:27.368Z,38.91
2024-03-16T11:24:27.381Z,38.91
2024-03-16T11:25:27.404Z,38.88
2024-03-16T11:26:27.428Z,38.87
2024-03-16T11:27:27.452Z,38.88
2024-03-16T11:28:27.469Z,38.84
2024-03-16T11:29:27.494Z,38.85
2024-03-16T11:30:34.231Z,38.85
2024-03-16T11:31:28.533Z,38.84
2024-03-16T11:32:27.568Z,38.82
2024-03-16T11:33:27.560Z,38.80
2024-03-16T11:34:27.605Z,38.80
2024-03-16T11:35:27.581Z,38.80
2024-03-16T11:36:27.591Z,38.80
2024-03-16T11:37:27.603Z,38.79
2024-03-16T11:38:27.609Z,38.78
2024-03-16T11:39:27.627Z,38.74
2024-03-16T11:40:27.648Z,38.69
2024-03-16T11:41:27.655Z,38.70
2024-03-16T11:42:27.659Z,38.69
2024-03-16T11:43:27.661Z,38.70
2024-03-16T11:44:27.677Z,38.71
2024-03-16T11:45:27.685Z,38.68
2024-03-16T11:46:27.697Z,38.71
2024-03-16T11:47:27.702Z,38.69
2024-03-16T11:48:27.710Z,38.67
2024-03-16T11:49:27.713Z,38.70
2024-03-16T11:50:27.726Z,38.64
2024-03-16T11:51:27.739Z,38.62
2024-03-16T11:52:27.763Z,38.63
2024-03-16T11:53:27.768Z,38.64
2024-03-16T11:54:27.773Z,38.63
2024-03-16T11:55:27.770Z,38.66
2024-03-16T11:56:27.793Z,38.62
2024-03-16T11:57:27.924Z,38.60
2024-03-16T11:58:27.841Z,38.61
2024-03-16T11:59:27.830Z,38.61
2024-03-16T12:00:27.846Z,38.63
2024-03-16T12:01:27.890Z,38.60
2024-03-16T12:02:27.866Z,38.57
2024-03-16T12:03:27.896Z,38.60
2024-03-16T12:04:27.911Z,38.58
2024-03-16T12:05:27.977Z,38.56
2024-03-16T12:06:27.956Z,38.53
2024-03-16T12:07:28.010Z,38.54
2024-03-16T12:08:28.071Z,38.55
2024-03-16T12:09:28.089Z,38.52
2024-03-16T12:10:28.141Z,38.48
2024-03-16T12:11:28.259Z,38.47
2024-03-16T12:12:28.245Z,38.45
2024-03-16T12:13:28.295Z,38.43
2024-03-16T12:14:38.454Z,38.43
2024-03-16T12:15:29.372Z,38.44
2024-03-16T12:16:28.377Z,38.43
2024-03-16T12:17:28.411Z,38.42
2024-03-16T12:18:28.399Z,38.41
2024-03-16T12:19:28.421Z,38.42
2024-03-16T12:20:28.424Z,38.41
2024-03-16T12:21:31.107Z,38.40
2024-03-16T12:22:28.440Z,38.38
2024-03-16T12:23:28.449Z,38.37
2024-03-16T12:24:28.458Z,38.33
2024-03-16T12:25:28.526Z,38.32
2024-03-16T12:26:28.509Z,38.32
2024-03-16T12:27:28.510Z,38.30
2024-03-16T12:28:28.502Z,38.31
2024-03-16T12:29:28.524Z,38.30
2024-03-16T12:30:28.523Z,38.26
2024-03-16T12:31:28.544Z,38.28
2024-03-16T12:32:28.581Z,38.27
2024-03-16T12:33:28.559Z,38.27
2024-03-16T12:34:29.260Z,38.23
2024-03-16T12:35:28.579Z,38.25
2024-03-16T12:36:28.628Z,38.25
2024-03-16T12:37:28.629Z,38.21
2024-03-16T12:38:28.622Z,38.22
2024-03-16T12:39:28.624Z,38.19
2024-03-16T12:40:28.620Z,38.17
2024-03-16T12:41:28.633Z,38.15
2024-03-16T12:42:28.657Z,38.16
2024-03-16T12:43:28.646Z,38.17
2024-03-16T12:44:28.658Z,38.13
2024-03-16T12:45:28.677Z,38.14
2024-03-16T12:46:28.675Z,38.11
2024-03-16T12:47:28.688Z,38.11
2024-03-16T12:48:28.707Z,38.09
2024-03-16T12:49:28.737Z,38.07
2024-03-16T12:50:28.715Z,38.08
2024-03-16T12:51:28.723Z,38.05
2024-03-16T12:52:28.738Z,38.08
2024-03-16T12:53:28.753Z,38.07